Baldwin, Florida
Current Conditions -  °F | °C
As of 3:50 PM on Saturday 25 Oct 2014 (Local Time) from KVQQ Reporting Station
Clear Clear  
Wind Chill: 77°   Ceiling: Unl
Heat Index: 78°   Visibility: 10mi
Dew Point: 48°   Wind: 7mph
Humidity: 36%   Direction: 360°N
Pressure: 29.96"   Gusts: NA
Location:  30.2098°N, 81.9726°W
Report Text: KVQQ 251950Z 36006KT 10SM CLR 25/09 A2996
Loading
Personal Weather Stations






























Interactive Weather Map
Tropical Storm Tracking
New forecast layout! Learn more

10-Day Weather Forecast

Advertisements
Track Severe Weather on mobile